createdAt,value
2017-11-01T00:00:56.600Z,1018.96
2017-11-01T00:01:56.596Z,1018.95
2017-11-01T00:02:56.591Z,1018.96
2017-11-01T00:03:56.584Z,1018.91
2017-11-01T00:04:56.576Z,1018.90
2017-11-01T00:05:56.572Z,1018.92
2017-11-01T00:06:56.566Z,1018.99
2017-11-01T00:07:56.572Z,1018.95
2017-11-01T00:08:56.556Z,1018.97
2017-11-01T00:09:56.551Z,1018.98
2017-11-01T00:10:56.545Z,1018.99
2017-11-01T00:11:56.541Z,1019.00
2017-11-01T00:12:56.540Z,1018.99
2017-11-01T00:13:56.535Z,1019.03
2017-11-01T00:14:56.531Z,1019.00
2017-11-01T00:15:56.527Z,1018.98
2017-11-01T00:16:56.521Z,1018.98
2017-11-01T00:17:56.515Z,1018.97
2017-11-01T00:18:56.513Z,1018.97
2017-11-01T00:19:56.504Z,1018.97
2017-11-01T00:20:56.495Z,1018.94
2017-11-01T00:21:56.491Z,1018.89
2017-11-01T00:22:56.486Z,1018.90
2017-11-01T00:23:56.479Z,1018.94
2017-11-01T00:24:56.479Z,1019.00
2017-11-01T00:25:56.475Z,1018.98
2017-11-01T00:26:56.467Z,1018.93
2017-11-01T00:27:56.459Z,1018.91
2017-11-01T00:28:56.460Z,1018.95
2017-11-01T00:29:56.455Z,1018.96
2017-11-01T00:30:56.449Z,1019.00
2017-11-01T00:31:56.447Z,1019.01
2017-11-01T00:32:56.439Z,1019.04
2017-11-01T00:33:56.434Z,1018.99
2017-11-01T00:34:56.430Z,1018.96
2017-11-01T00:35:56.423Z,1018.95
2017-11-01T00:36:56.422Z,1019.02
2017-11-01T00:37:56.411Z,1018.98
2017-11-01T00:38:56.406Z,1018.95
2017-11-01T00:39:56.407Z,1019.03
2017-11-01T00:40:56.394Z,1018.93
2017-11-01T00:41:56.389Z,1018.96
2017-11-01T00:42:56.385Z,1018.95
2017-11-01T00:43:56.378Z,1018.88
2017-11-01T00:44:56.378Z,1018.94
2017-11-01T00:45:56.374Z,1018.91
2017-11-01T00:46:56.369Z,1018.86
2017-11-01T00:47:56.362Z,1018.93
2017-11-01T00:48:56.358Z,1018.94
2017-11-01T00:49:56.353Z,1018.90
2017-11-01T00:50:56.347Z,1018.86
2017-11-01T00:51:56.343Z,1018.89
2017-11-01T00:52:56.333Z,1018.86
2017-11-01T00:53:56.328Z,1018.83
2017-11-01T00:54:56.325Z,1018.84
2017-11-01T00:55:56.318Z,1018.79
2017-11-01T00:56:56.311Z,1018.82
2017-11-01T00:57:56.309Z,1018.82
2017-11-01T00:58:56.303Z,1018.83
2017-11-01T00:59:56.296Z,1018.86
2017-11-01T01:00:56.295Z,1018.83
2017-11-01T01:01:56.292Z,1018.83
2017-11-01T01:02:56.286Z,1018.80
2017-11-01T01:03:56.280Z,1018.80
2017-11-01T01:04:56.275Z,1018.79
2017-11-01T01:05:56.271Z,1018.82
2017-11-01T01:06:56.266Z,1018.81
2017-11-01T01:07:56.258Z,1018.82
2017-11-01T01:08:56.251Z,1018.79
2017-11-01T01:09:56.245Z,1018.72
2017-11-01T01:10:56.240Z,1018.75
2017-11-01T01:11:56.234Z,1018.77
2017-11-01T01:12:56.227Z,1018.78
2017-11-01T01:13:56.222Z,1018.80
2017-11-01T01:14:56.221Z,1018.78
2017-11-01T01:15:56.213Z,1018.81
2017-11-01T01:16:56.211Z,1018.80
2017-11-01T01:17:56.206Z,1018.74
2017-11-01T01:18:56.206Z,1018.71
2017-11-01T01:19:56.194Z,1018.69
2017-11-01T01:20:56.191Z,1018.69
2017-11-01T01:21:56.186Z,1018.64
2017-11-01T01:22:56.182Z,1018.66
2017-11-01T01:23:56.175Z,1018.72
2017-11-01T01:24:56.165Z,1018.68
2017-11-01T01:25:56.162Z,1018.73
2017-11-01T01:26:56.156Z,1018.70
2017-11-01T01:27:56.149Z,1018.67
2017-11-01T01:28:56.146Z,1018.69
2017-11-01T01:29:56.140Z,1018.64
2017-11-01T01:30:56.135Z,1018.64
2017-11-01T01:31:56.129Z,1018.67
2017-11-01T01:32:56.128Z,1018.67
2017-11-01T01:33:56.123Z,1018.69
2017-11-01T01:34:56.117Z,1018.72
2017-11-01T01:35:56.119Z,1018.67
2017-11-01T01:36:56.107Z,1018.71
2017-11-01T01:37:56.101Z,1018.69
2017-11-01T01:38:56.098Z,1018.70
2017-11-01T01:39:56.091Z,1018.72
2017-11-01T01:40:56.082Z,1018.73
2017-11-01T01:41:56.081Z,1018.74
2017-11-01T01:42:56.078Z,1018.76
2017-11-01T01:43:56.070Z,1018.76
2017-11-01T01:44:56.061Z,1018.70
2017-11-01T01:45:56.057Z,1018.70
2017-11-01T01:46:56.052Z,1018.71
2017-11-01T01:47:56.046Z,1018.70
2017-11-01T01:48:56.046Z,1018.76
2017-11-01T01:49:56.040Z,1018.75
2017-11-01T01:50:56.034Z,1018.73
2017-11-01T01:51:56.029Z,1018.75
2017-11-01T01:52:56.024Z,1018.74
2017-11-01T01:53:56.018Z,1018.72
2017-11-01T01:54:56.023Z,1018.72
2017-11-01T01:55:56.009Z,1018.64
2017-11-01T01:56:55.999Z,1018.68
2017-11-01T01:57:55.994Z,1018.67
2017-11-01T01:58:55.990Z,1018.64
2017-11-01T01:59:55.982Z,1018.65
2017-11-01T02:00:55.978Z,1018.68
2017-11-01T02:01:55.975Z,1018.66
2017-11-01T02:02:55.969Z,1018.64
2017-11-01T02:03:55.963Z,1018.69
2017-11-01T02:04:55.962Z,1018.72
2017-11-01T02:05:55.963Z,1018.68
2017-11-01T02:06:55.951Z,1018.70
2017-11-01T02:07:55.946Z,1018.69
2017-11-01T02:08:55.942Z,1018.61
2017-11-01T02:09:55.932Z,1018.63
2017-11-01T02:10:55.926Z,1018.58
2017-11-01T02:11:55.922Z,1018.58
2017-11-01T02:12:55.920Z,1018.65
2017-11-01T02:13:55.915Z,1018.64
2017-11-01T02:14:55.911Z,1018.62
2017-11-01T02:15:55.904Z,1018.59
2017-11-01T02:16:55.903Z,1018.57
2017-11-01T02:17:55.895Z,1018.57
2017-11-01T02:18:55.891Z,1018.55
2017-11-01T02:19:55.884Z,1018.53
2017-11-01T02:20:55.874Z,1018.51
2017-11-01T02:21:55.870Z,1018.49
2017-11-01T02:22:55.864Z,1018.48
2017-11-01T02:23:55.860Z,1018.48
2017-11-01T02:24:55.854Z,1018.47
2017-11-01T02:25:55.849Z,1018.46
2017-11-01T02:26:55.844Z,1018.46
2017-11-01T02:27:55.837Z,1018.44
2017-11-01T02:28:55.838Z,1018.48
2017-11-01T02:29:55.834Z,1018.42
2017-11-01T02:30:55.827Z,1018.44
2017-11-01T02:31:55.824Z,1018.50
2017-11-01T02:32:55.817Z,1018.48
2017-11-01T02:33:55.813Z,1018.47
2017-11-01T02:34:55.808Z,1018.45
2017-11-01T02:35:55.802Z,1018.44
2017-11-01T02:36:55.792Z,1018.45
2017-11-01T02:37:55.788Z,1018.44
2017-11-01T02:38:55.783Z,1018.47
2017-11-01T02:39:55.780Z,1018.51
2017-11-01T02:40:55.771Z,1018.52
2017-11-01T02:41:55.767Z,1018.50
2017-11-01T02:42:55.763Z,1018.50
2017-11-01T02:43:55.758Z,1018.52
2017-11-01T02:44:55.755Z,1018.53
2017-11-01T02:45:55.755Z,1018.51
2017-11-01T02:46:55.749Z,1018.49
2017-11-01T02:47:55.741Z,1018.49
2017-11-01T02:48:55.735Z,1018.47
2017-11-01T02:49:55.731Z,1018.52
2017-11-01T02:50:55.726Z,1018.49
2017-11-01T02:51:55.719Z,1018.46
2017-11-01T02:52:55.711Z,1018.46
2017-11-01T02:53:55.705Z,1018.42
2017-11-01T02:54:55.701Z,1018.41
2017-11-01T02:55:55.696Z,1018.41
2017-11-01T02:56:55.690Z,1018.48
2017-11-01T02:57:55.686Z,1018.44
2017-11-01T02:58:55.687Z,1018.48
2017-11-01T02:59:55.675Z,1018.48
2017-11-01T03:00:55.676Z,1018.50
2017-11-01T03:01:55.668Z,1018.50
2017-11-01T03:02:55.664Z,1018.49
2017-11-01T03:03:55.658Z,1018.52
2017-11-01T03:04:55.655Z,1018.50
2017-11-01T03:05:55.650Z,1018.46
2017-11-01T03:06:55.644Z,1018.45
2017-11-01T03:07:55.637Z,1018.51
2017-11-01T03:08:55.630Z,1018.45
2017-11-01T03:09:55.624Z,1018.50
2017-11-01T03:10:55.619Z,1018.50
2017-11-01T03:11:55.621Z,1018.48
2017-11-01T03:12:55.613Z,1018.49
2017-11-01T03:13:55.608Z,1018.50
2017-11-01T03:14:55.604Z,1018.46
2017-11-01T03:15:55.602Z,1018.50
2017-11-01T03:16:55.588Z,1018.49
2017-11-01T03:17:55.584Z,1018.49
2017-11-01T03:18:55.582Z,1018.50
2017-11-01T03:19:55.575Z,1018.46
2017-11-01T03:20:55.569Z,1018.40
2017-11-01T03:21:55.563Z,1018.49
2017-11-01T03:22:55.559Z,1018.50
2017-11-01T03:23:55.553Z,1018.46
2017-11-01T03:24:55.552Z,1018.39
2017-11-01T03:25:55.548Z,1018.44
2017-11-01T03:26:55.548Z,1018.50
2017-11-01T03:27:55.537Z,1018.51
2017-11-01T03:28:55.532Z,1018.44
2017-11-01T03:29:55.528Z,1018.53
2017-11-01T03:30:55.524Z,1018.45
2017-11-01T03:31:55.517Z,1018.54
2017-11-01T03:32:55.510Z,1018.45
2017-11-01T03:33:55.504Z,1018.48
2017-11-01T03:34:55.498Z,1018.56
2017-11-01T03:35:55.493Z,1018.56
2017-11-01T03:36:55.491Z,1018.54
2017-11-01T03:37:55.485Z,1018.59
2017-11-01T03:38:55.480Z,1018.59
2017-11-01T03:39:55.474Z,1018.64
2017-11-01T03:40:55.475Z,1018.61
2017-11-01T03:41:55.468Z,1018.57
2017-11-01T03:42:55.463Z,1018.54
2017-11-01T03:43:55.457Z,1018.50
2017-11-01T03:44:55.452Z,1018.53
2017-11-01T03:45:55.448Z,1018.48
2017-11-01T03:46:55.444Z,1018.46
2017-11-01T03:47:55.437Z,1018.42
2017-11-01T03:48:55.428Z,1018.49
2017-11-01T03:49:55.424Z,1018.43
2017-11-01T03:50:55.427Z,1018.42
2017-11-01T03:51:55.414Z,1018.38
2017-11-01T03:52:55.408Z,1018.36
2017-11-01T03:53:55.403Z,1018.36
2017-11-01T03:54:55.399Z,1018.35
2017-11-01T03:55:55.394Z,1018.37
2017-11-01T03:56:55.397Z,1018.36
2017-11-01T03:57:55.394Z,1018.30
2017-11-01T03:58:55.390Z,1018.34
2017-11-01T03:59:55.378Z,1018.32
2017-11-01T04:00:55.375Z,1018.31
2017-11-01T04:01:55.368Z,1018.31
2017-11-01T04:02:55.363Z,1018.31
2017-11-01T04:03:55.358Z,1018.28
2017-11-01T04:04:55.348Z,1018.30
2017-11-01T04:05:55.344Z,1018.30
2017-11-01T04:06:55.338Z,1018.29
2017-11-01T04:07:55.334Z,1018.28
2017-11-01T04:08:55.329Z,1018.33
2017-11-01T04:09:55.324Z,1018.31
2017-11-01T04:10:55.324Z,1018.37
2017-11-01T04:11:55.313Z,1018.34
2017-11-01T04:12:55.313Z,1018.27
2017-11-01T04:13:55.310Z,1018.32
2017-11-01T04:14:55.303Z,1018.28
2017-11-01T04:15:55.298Z,1018.30
2017-11-01T04:16:55.290Z,1018.24
2017-11-01T04:17:55.284Z,1018.31
2017-11-01T04:18:55.284Z,1018.30
2017-11-01T04:19:55.274Z,1018.30
2017-11-01T04:20:55.274Z,1018.33
2017-11-01T04:21:55.270Z,1018.32
2017-11-01T04:22:55.263Z,1018.34
2017-11-01T04:23:55.258Z,1018.33
2017-11-01T04:24:55.253Z,1018.30
2017-11-01T04:25:55.249Z,1018.33
2017-11-01T04:26:55.244Z,1018.33
2017-11-01T04:27:55.238Z,1018.30
2017-11-01T04:28:55.228Z,1018.36
2017-11-01T04:29:55.228Z,1018.35
2017-11-01T04:30:55.220Z,1018.31
2017-11-01T04:31:55.216Z,1018.34
2017-11-01T04:32:55.209Z,1018.29
2017-11-01T04:33:55.206Z,1018.30
2017-11-01T04:34:55.201Z,1018.25
2017-11-01T04:35:55.194Z,1018.26
2017-11-01T04:36:55.194Z,1018.26
2017-11-01T04:37:55.189Z,1018.19
2017-11-01T04:38:55.184Z,1018.25
2017-11-01T04:39:55.178Z,1018.21
2017-11-01T04:40:55.173Z,1018.22
2017-11-01T04:41:55.169Z,1018.23
2017-11-01T04:42:55.165Z,1018.24
2017-11-01T04:43:55.159Z,1018.24
2017-11-01T04:44:55.150Z,1018.22
2017-11-01T04:45:55.146Z,1018.22
2017-11-01T04:46:55.141Z,1018.22
2017-11-01T04:47:55.134Z,1018.25
2017-11-01T04:48:55.130Z,1018.25
2017-11-01T04:49:55.126Z,1018.26
2017-11-01T04:50:55.120Z,1018.20
2017-11-01T04:51:55.118Z,1018.21
2017-11-01T04:52:55.117Z,1018.19
2017-11-01T04:53:55.110Z,1018.18
2017-11-01T04:54:55.106Z,1018.22
2017-11-01T04:55:55.098Z,1018.22
2017-11-01T04:56:55.095Z,1018.20
2017-11-01T04:57:55.090Z,1018.18
2017-11-01T04:58:55.083Z,1018.25
2017-11-01T04:59:55.081Z,1018.16
2017-11-01T05:00:55.070Z,1018.22
2017-11-01T05:01:55.065Z,1018.21
2017-11-01T05:02:55.060Z,1018.23
2017-11-01T05:03:55.057Z,1018.23
2017-11-01T05:04:55.050Z,1018.17
2017-11-01T05:05:55.045Z,1018.17
2017-11-01T05:06:55.042Z,1018.17
2017-11-01T05:07:55.033Z,1018.24
2017-11-01T05:08:55.035Z,1018.18
2017-11-01T05:09:55.028Z,1018.17
2017-11-01T05:10:55.025Z,1018.18
2017-11-01T05:11:55.019Z,1018.17
2017-11-01T05:12:55.014Z,1018.17
2017-11-01T05:13:55.009Z,1018.23
2017-11-01T05:14:55.005Z,1018.23
2017-11-01T05:15:54.999Z,1018.19
2017-11-01T05:16:54.989Z,1018.22
2017-11-01T05:17:54.986Z,1018.23
2017-11-01T05:18:54.979Z,1018.23
2017-11-01T05:19:54.975Z,1018.23
2017-11-01T05:20:54.974Z,1018.23
2017-11-01T05:21:54.968Z,1018.25
2017-11-01T05:22:54.965Z,1018.25
2017-11-01T05:23:54.957Z,1018.24
2017-11-01T05:24:54.949Z,1018.28
2017-11-01T05:25:54.944Z,1018.21
2017-11-01T05:26:54.939Z,1018.23
2017-11-01T05:27:54.934Z,1018.25
2017-11-01T05:28:54.929Z,1018.24
2017-11-01T05:29:54.924Z,1018.27
2017-11-01T05:30:54.919Z,1018.29
2017-11-01T05:31:54.914Z,1018.25
2017-11-01T05:32:54.915Z,1018.28
2017-11-01T05:33:54.909Z,1018.25
2017-11-01T05:34:54.904Z,1018.20
2017-11-01T05:35:54.898Z,1018.20
2017-11-01T05:36:54.894Z,1018.19
2017-11-01T05:37:54.889Z,1018.21
2017-11-01T05:38:54.883Z,1018.23
2017-11-01T05:39:54.878Z,1018.26
2017-11-01T05:40:54.870Z,1018.21
2017-11-01T05:41:54.864Z,1018.21
2017-11-01T05:42:54.860Z,1018.17
2017-11-01T05:43:54.864Z,1018.19
2017-11-01T05:44:54.849Z,1018.23
2017-11-01T05:45:54.847Z,1018.22
2017-11-01T05:46:54.839Z,1018.20
2017-11-01T05:47:54.835Z,1018.26
2017-11-01T05:48:54.834Z,1018.27
2017-11-01T05:49:54.831Z,1018.26
2017-11-01T05:50:54.825Z,1018.24
2017-11-01T05:51:54.819Z,1018.23
2017-11-01T05:52:54.816Z,1018.22
2017-11-01T05:53:54.809Z,1018.21
2017-11-01T05:54:54.804Z,1018.21
2017-11-01T05:55:54.799Z,1018.22
2017-11-01T05:56:54.790Z,1018.21
2017-11-01T05:57:54.786Z,1018.23
2017-11-01T05:58:54.783Z,1018.26
2017-11-01T05:59:54.773Z,1018.25
2017-11-01T06:00:54.770Z,1018.27
2017-11-01T06:01:54.766Z,1018.25
2017-11-01T06:02:54.760Z,1018.32
2017-11-01T06:03:54.754Z,1018.32
2017-11-01T06:04:54.755Z,1018.27
2017-11-01T06:05:54.749Z,1018.28
2017-11-01T06:06:54.745Z,1018.31
2017-11-01T06:07:54.738Z,1018.30
2017-11-01T06:08:54.736Z,1018.29
2017-11-01T06:09:54.730Z,1018.33
2017-11-01T06:10:54.726Z,1018.34
2017-11-01T06:11:54.719Z,1018.35
2017-11-01T06:12:54.711Z,1018.36
2017-11-01T06:13:54.706Z,1018.37
2017-11-01T06:14:54.701Z,1018.43
2017-11-01T06:15:54.699Z,1018.42
2017-11-01T06:16:54.692Z,1018.40
2017-11-01T06:17:54.686Z,1018.45
2017-11-01T06:18:54.681Z,1018.43
2017-11-01T06:19:54.675Z,1018.44
2017-11-01T06:20:54.675Z,1018.45
2017-11-01T06:21:54.671Z,1018.44
2017-11-01T06:22:54.664Z,1018.42
2017-11-01T06:23:54.658Z,1018.49
2017-11-01T06:24:54.652Z,1018.42
2017-11-01T06:25:54.645Z,1018.44
2017-11-01T06:26:54.639Z,1018.43
2017-11-01T06:27:54.636Z,1018.44
2017-11-01T06:28:54.641Z,1018.46
2017-11-01T06:29:54.629Z,1018.49
2017-11-01T06:30:54.630Z,1018.48
2017-11-01T06:31:54.625Z,1018.48
2017-11-01T06:32:54.615Z,1018.50
2017-11-01T06:33:54.611Z,1018.45
2017-11-01T06:34:54.605Z,1018.51
2017-11-01T06:35:54.599Z,1018.53
2017-11-01T06:36:54.590Z,1018.53
2017-11-01T06:37:54.585Z,1018.57
2017-11-01T06:38:54.581Z,1018.57
2017-11-01T06:39:54.574Z,1018.55
2017-11-01T06:40:54.570Z,1018.55
2017-11-01T06:41:54.572Z,1018.54
2017-11-01T06:42:54.562Z,1018.56
2017-11-01T06:43:54.562Z,1018.54
2017-11-01T06:44:54.554Z,1018.59
2017-11-01T06:45:54.549Z,1018.59
2017-11-01T06:46:54.543Z,1018.54
2017-11-01T06:47:54.538Z,1018.56
2017-11-01T06:48:54.535Z,1018.52
2017-11-01T06:49:54.530Z,1018.54
2017-11-01T06:50:54.526Z,1018.57
2017-11-01T06:51:54.520Z,1018.57
2017-11-01T06:52:54.513Z,1018.58
2017-11-01T06:53:54.506Z,1018.60
2017-11-01T06:54:54.502Z,1018.60
2017-11-01T06:55:54.496Z,1018.64
2017-11-01T06:56:54.489Z,1018.63
2017-11-01T06:57:54.485Z,1018.62
2017-11-01T06:58:54.481Z,1018.62
2017-11-01T06:59:54.474Z,1018.64
2017-11-01T07:00:54.484Z,1018.61
2017-11-01T07:01:54.469Z,1018.61
2017-11-01T07:02:54.464Z,1018.60
2017-11-01T07:03:54.459Z,1018.61
2017-11-01T07:04:54.458Z,1018.62
2017-11-01T07:05:54.450Z,1018.64
2017-11-01T07:06:54.444Z,1018.61
2017-11-01T07:07:54.441Z,1018.65
2017-11-01T07:08:54.431Z,1018.71
2017-11-01T07:09:54.425Z,1018.67
2017-11-01T07:10:54.422Z,1018.70
2017-11-01T07:11:54.415Z,1018.64
2017-11-01T07:12:54.411Z,1018.68
2017-11-01T07:13:54.407Z,1018.66
2017-11-01T07:14:54.401Z,1018.69
2017-11-01T07:15:54.394Z,1018.69
2017-11-01T07:16:54.394Z,1018.65
2017-11-01T07:17:54.390Z,1018.67
2017-11-01T07:18:54.386Z,1018.74
2017-11-01T07:19:54.386Z,1018.72
2017-11-01T07:20:54.375Z,1018.73
2017-11-01T07:21:54.370Z,1018.77
2017-11-01T07:22:54.366Z,1018.84
2017-11-01T07:23:54.360Z,1018.84
2017-11-01T07:24:54.352Z,1018.81
2017-11-01T07:25:54.346Z,1018.77
2017-11-01T07:26:54.345Z,1018.77
2017-11-01T07:27:54.336Z,1018.79
2017-11-01T07:28:54.337Z,1018.82
2017-11-01T07:29:54.331Z,1018.81
2017-11-01T07:30:54.326Z,1018.85
2017-11-01T07:31:54.321Z,1018.90
2017-11-01T07:32:54.312Z,1018.91
2017-11-01T07:33:54.309Z,1018.91
2017-11-01T07:34:54.305Z,1018.92
2017-11-01T07:35:54.299Z,1018.84
2017-11-01T07:36:54.297Z,1018.91
2017-11-01T07:37:54.288Z,1018.91
2017-11-01T07:38:54.283Z,1018.89
2017-11-01T07:39:54.279Z,1018.93
2017-11-01T07:40:54.281Z,1018.95
2017-11-01T07:41:54.273Z,1018.92
2017-11-01T07:42:54.270Z,1018.99
2017-11-01T07:43:54.265Z,1018.99
2017-11-01T07:44:54.259Z,1019.02
2017-11-01T07:45:54.256Z,1019.08
2017-11-01T07:46:54.251Z,1019.06
2017-11-01T07:47:54.246Z,1019.09
2017-11-01T07:48:54.238Z,1019.09
2017-11-01T07:49:54.233Z,1019.12
2017-11-01T07:50:54.228Z,1019.15
2017-11-01T07:51:54.223Z,1019.11
2017-11-01T07:52:54.219Z,1019.16
2017-11-01T07:53:54.215Z,1019.19
2017-11-01T07:54:54.211Z,1019.20
2017-11-01T07:55:54.205Z,1019.18
2017-11-01T07:56:54.205Z,1019.16
2017-11-01T07:57:54.203Z,1019.21
2017-11-01T07:58:54.196Z,1019.20
2017-11-01T07:59:54.191Z,1019.19
2017-11-01T08:00:54.186Z,1019.22
2017-11-01T08:01:54.186Z,1019.18
2017-11-01T08:02:54.180Z,1019.22
2017-11-01T08:03:54.173Z,1019.23
2017-11-01T08:04:54.164Z,1019.20
2017-11-01T08:05:54.159Z,1019.15
2017-11-01T08:06:54.155Z,1019.19
2017-11-01T08:07:54.151Z,1019.20
2017-11-01T08:08:54.146Z,1019.14
2017-11-01T08:09:54.142Z,1019.18
2017-11-01T08:10:54.138Z,1019.19
2017-11-01T08:11:54.135Z,1019.20
2017-11-01T08:12:54.132Z,1019.20
2017-11-01T08:13:54.131Z,1019.22
2017-11-01T08:14:54.131Z,1019.20
2017-11-01T08:15:54.120Z,1019.13
2017-11-01T08:16:54.114Z,1019.14
2017-11-01T08:17:54.116Z,1019.14
2017-11-01T08:18:54.106Z,1019.13
2017-11-01T08:19:54.109Z,1019.18
2017-11-01T08:20:54.094Z,1019.16
2017-11-01T08:21:54.089Z,1019.16
2017-11-01T08:22:54.085Z,1019.20
2017-11-01T08:23:54.083Z,1019.25
2017-11-01T08:24:54.075Z,1019.24
2017-11-01T08:25:54.073Z,1019.27
2017-11-01T08:26:54.067Z,1019.29
2017-11-01T08:27:54.063Z,1019.21
2017-11-01T08:28:54.064Z,1019.26
2017-11-01T08:29:54.064Z,1019.21
2017-11-01T08:30:54.056Z,1019.27
2017-11-01T08:31:54.049Z,1019.27
2017-11-01T08:32:54.043Z,1019.23
2017-11-01T08:33:54.039Z,1019.25
2017-11-01T08:34:54.035Z,1019.22
2017-11-01T08:35:54.030Z,1019.20
2017-11-01T08:36:54.031Z,1019.24
2017-11-01T08:37:54.026Z,1019.27
2017-11-01T08:38:54.022Z,1019.26
2017-11-01T08:39:54.017Z,1019.24
2017-11-01T08:40:54.015Z,1019.26
2017-11-01T08:41:54.012Z,1019.25
2017-11-01T08:42:54.008Z,1019.15
2017-11-01T08:43:54.003Z,1019.11
2017-11-01T08:44:53.994Z,1019.18
2017-11-01T08:45:53.991Z,1019.19
2017-11-01T08:46:53.988Z,1019.18
2017-11-01T08:47:53.984Z,1019.17
2017-11-01T08:48:53.982Z,1019.17
2017-11-01T08:49:53.977Z,1019.21
2017-11-01T08:50:53.980Z,1019.21
2017-11-01T08:51:53.969Z,1019.11
2017-11-01T08:52:53.972Z,1019.11
2017-11-01T08:53:53.968Z,1019.12
2017-11-01T08:54:53.966Z,1019.10
2017-11-01T08:55:53.960Z,1019.17
2017-11-01T08:56:53.960Z,1019.14
2017-11-01T08:57:53.954Z,1019.12
2017-11-01T08:58:53.952Z,1019.07
2017-11-01T08:59:53.947Z,1019.07
2017-11-01T09:00:53.939Z,1019.08
2017-11-01T09:01:53.936Z,1019.12
2017-11-01T09:02:53.933Z,1019.08
2017-11-01T09:03:53.929Z,1019.09
2017-11-01T09:04:53.925Z,1019.09
2017-11-01T09:05:53.927Z,1019.08
2017-11-01T09:06:53.918Z,1019.11
2017-11-01T09:07:53.914Z,1019.12
2017-11-01T09:08:53.915Z,1019.02
2017-11-01T09:09:53.913Z,1019.02
2017-11-01T09:10:53.908Z,1019.06
2017-11-01T09:11:53.904Z,1019.12
2017-11-01T09:12:53.902Z,1019.12
2017-11-01T09:13:53.899Z,1019.09
2017-11-01T09:14:53.896Z,1019.12
2017-11-01T09:15:53.894Z,1019.15
2017-11-01T09:16:53.883Z,1019.19
2017-11-01T09:17:53.880Z,1019.07
2017-11-01T09:18:53.877Z,1019.13
2017-11-01T09:19:53.874Z,1019.15
2017-11-01T09:20:53.880Z,1019.09
2017-11-01T09:21:53.872Z,1019.12
2017-11-01T09:22:53.864Z,1019.17
2017-11-01T09:23:53.890Z,1019.18
2017-11-01T09:24:53.863Z,1019.17
2017-11-01T09:25:53.860Z,1019.19
2017-11-01T09:26:53.860Z,1019.20
2017-11-01T09:27:53.854Z,1019.09
2017-11-01T09:28:53.851Z,1019.15
2017-11-01T09:29:53.850Z,1019.05
2017-11-01T09:30:53.848Z,1019.07
2017-11-01T09:31:53.845Z,1019.06
2017-11-01T09:32:53.840Z,1018.96
2017-11-01T09:33:53.836Z,1018.96
2017-11-01T09:34:53.835Z,1018.91
2017-11-01T09:35:53.832Z,1018.91
2017-11-01T09:36:53.834Z,1018.94
2017-11-01T09:37:53.829Z,1018.97
2017-11-01T09:38:53.826Z,1018.98
2017-11-01T09:39:53.824Z,1019.04
2017-11-01T09:40:53.826Z,1019.04
2017-11-01T09:41:53.823Z,1019.09
2017-11-01T09:42:53.823Z,1019.13
2017-11-01T09:43:53.819Z,1019.12
2017-11-01T09:44:53.819Z,1019.04
2017-11-01T09:45:53.816Z,1018.96
2017-11-01T09:46:53.814Z,1019.03
2017-11-01T09:47:53.812Z,1019.04
2017-11-01T09:48:53.805Z,1019.00
2017-11-01T09:49:53.802Z,1019.03
2017-11-01T09:50:53.802Z,1019.00
2017-11-01T09:51:53.800Z,1019.02
2017-11-01T09:52:53.798Z,1019.08
2017-11-01T09:53:53.796Z,1019.12
2017-11-01T09:54:53.794Z,1019.11
2017-11-01T09:55:53.792Z,1019.03
2017-11-01T09:56:53.793Z,1019.07
2017-11-01T09:57:53.794Z,1019.15
2017-11-01T09:58:53.794Z,1019.20
2017-11-01T09:59:53.789Z,1019.25
2017-11-01T10:00:53.787Z,1019.14
2017-11-01T10:01:53.786Z,1019.20
2017-11-01T10:02:53.788Z,1019.13
2017-11-01T10:03:53.782Z,1019.10
2017-11-01T10:04:53.772Z,1019.05
2017-11-01T10:05:53.776Z,1019.16
2017-11-01T10:06:53.775Z,1019.03
2017-11-01T10:07:53.774Z,1019.01
2017-11-01T10:08:53.774Z,1018.96
2017-11-01T10:09:53.772Z,1018.91
2017-11-01T10:10:53.773Z,1018.84
2017-11-01T10:11:53.771Z,1018.87
2017-11-01T10:12:53.775Z,1018.86
2017-11-01T10:13:53.774Z,1019.03
2017-11-01T10:14:53.774Z,1019.00
2017-11-01T10:15:53.772Z,1018.95
2017-11-01T10:16:53.773Z,1018.90
2017-11-01T10:17:53.777Z,1018.96
2017-11-01T10:18:53.788Z,1019.02
2017-11-01T10:19:53.769Z,1018.98
2017-11-01T10:20:53.767Z,1019.00
2017-11-01T10:21:53.772Z,1019.01
2017-11-01T10:22:53.766Z,1018.98
2017-11-01T10:23:53.765Z,1018.96
2017-11-01T10:24:53.767Z,1018.95
2017-11-01T10:25:53.767Z,1018.98
2017-11-01T10:26:53.768Z,1018.99
2017-11-01T10:27:53.768Z,1019.14
2017-11-01T10:28:53.774Z,1019.05
2017-11-01T10:29:53.773Z,1019.06
2017-11-01T10:30:53.775Z,1019.05
2017-11-01T10:31:53.773Z,1019.02
2017-11-01T10:32:53.774Z,1018.95
2017-11-01T10:33:53.777Z,1018.98
2017-11-01T10:34:53.778Z,1018.89
2017-11-01T10:35:53.778Z,1018.94
2017-11-01T10:36:53.775Z,1018.93
2017-11-01T10:37:53.776Z,1018.87
2017-11-01T10:38:53.778Z,1018.88
2017-11-01T10:39:53.778Z,1018.82
2017-11-01T10:40:53.783Z,1018.87
2017-11-01T10:41:53.785Z,1018.90
2017-11-01T10:42:53.786Z,1018.88
2017-11-01T10:43:53.792Z,1018.99
2017-11-01T10:44:53.784Z,1018.97
2017-11-01T10:45:53.785Z,1018.95
2017-11-01T10:46:53.785Z,1018.90
2017-11-01T10:47:53.788Z,1018.93
2017-11-01T10:48:53.798Z,1018.92
2017-11-01T10:49:53.791Z,1018.81
2017-11-01T10:50:53.793Z,1018.66
2017-11-01T10:51:53.798Z,1018.63
2017-11-01T10:52:53.800Z,1018.76
2017-11-01T10:53:53.801Z,1018.81
2017-11-01T10:54:53.805Z,1018.87
2017-11-01T10:55:53.805Z,1018.85
2017-11-01T10:56:53.807Z,1018.92
2017-11-01T10:57:53.810Z,1018.87
2017-11-01T10:58:53.812Z,1018.83
2017-11-01T10:59:53.814Z,1018.84
2017-11-01T11:00:53.811Z,1018.83
2017-11-01T11:01:53.816Z,1018.86
2017-11-01T11:02:53.815Z,1018.84
2017-11-01T11:03:53.818Z,1018.83
2017-11-01T11:04:53.820Z,1018.91
2017-11-01T11:05:53.822Z,1018.87
2017-11-01T11:06:53.826Z,1018.80
2017-11-01T11:07:53.825Z,1018.78
2017-11-01T11:08:53.832Z,1018.65
2017-11-01T11:09:53.834Z,1018.65
2017-11-01T11:10:53.843Z,1018.59
2017-11-01T11:11:53.837Z,1018.61
2017-11-01T11:12:53.839Z,1018.59
2017-11-01T11:13:53.841Z,1018.60
2017-11-01T11:14:53.844Z,1018.62
2017-11-01T11:15:53.843Z,1018.61
2017-11-01T11:16:53.840Z,1018.64
2017-11-01T11:17:53.843Z,1018.60
2017-11-01T11:18:53.844Z,1018.56
2017-11-01T11:19:53.845Z,1018.62
2017-11-01T11:20:53.845Z,1018.64
2017-11-01T11:21:53.847Z,1018.70
2017-11-01T11:22:53.849Z,1018.73
2017-11-01T11:23:53.850Z,1018.69
2017-11-01T11:24:53.853Z,1018.68
2017-11-01T11:25:53.855Z,1018.57
2017-11-01T11:26:53.856Z,1018.60
2017-11-01T11:27:53.855Z,1018.55
2017-11-01T11:28:53.861Z,1018.53
2017-11-01T11:29:53.858Z,1018.46
2017-11-01T11:30:53.867Z,1018.47
2017-11-01T11:31:53.857Z,1018.39
2017-11-01T11:32:53.855Z,1018.41
2017-11-01T11:33:53.856Z,1018.40
2017-11-01T11:34:53.857Z,1018.38
2017-11-01T11:35:53.855Z,1018.36
2017-11-01T11:36:53.856Z,1018.32
2017-11-01T11:37:53.931Z,1018.28
2017-11-01T11:38:53.859Z,1018.26
2017-11-01T11:39:53.857Z,1018.27
2017-11-01T11:40:53.862Z,1018.23
2017-11-01T11:41:53.861Z,1018.16
2017-11-01T11:42:53.863Z,1018.11
2017-11-01T11:43:53.861Z,1018.12
2017-11-01T11:44:53.858Z,1018.12
2017-11-01T11:45:53.860Z,1018.07
2017-11-01T11:46:53.858Z,1018.00
2017-11-01T11:47:53.858Z,1018.06
2017-11-01T11:48:53.862Z,1018.07
2017-11-01T11:49:53.862Z,1018.07
2017-11-01T11:50:53.862Z,1018.08
2017-11-01T11:51:53.861Z,1018.05
2017-11-01T11:52:53.861Z,1018.03
2017-11-01T11:53:53.861Z,1018.02
2017-11-01T11:54:53.861Z,1018.02
2017-11-01T11:55:53.860Z,1017.98
2017-11-01T11:56:53.856Z,1017.99
2017-11-01T11:57:53.856Z,1017.89
2017-11-01T11:58:53.856Z,1017.94
2017-11-01T11:59:53.853Z,1017.91
2017-11-01T12:00:53.852Z,1017.92
2017-11-01T12:01:53.854Z,1017.87
2017-11-01T12:02:53.853Z,1017.84
2017-11-01T12:03:53.851Z,1017.85
2017-11-01T12:04:53.854Z,1017.84
2017-11-01T12:05:53.854Z,1017.88